createdAt,value
2018-09-24T00:01:28.187Z,0.30
2018-09-24T00:03:56.416Z,0.00
2018-09-24T00:06:24.699Z,0.00
2018-09-24T00:08:52.954Z,0.00
2018-09-24T00:11:22.434Z,0.00
2018-09-24T00:13:50.983Z,0.00
2018-09-24T00:16:19.361Z,0.13
2018-09-24T00:18:47.670Z,0.00
2018-09-24T00:21:16.977Z,0.00
2018-09-24T00:23:45.194Z,0.00
2018-09-24T00:26:14.550Z,0.00
2018-09-24T00:28:43.515Z,0.10
2018-09-24T00:31:11.895Z,0.00
2018-09-24T00:33:40.270Z,0.00
2018-09-24T00:36:08.571Z,0.00
2018-09-24T00:38:37.650Z,0.00
2018-09-24T00:41:06.699Z,0.00
2018-09-24T00:43:34.931Z,0.00
2018-09-24T00:46:03.280Z,0.53
2018-09-24T00:48:31.726Z,0.00
2018-09-24T00:51:00.865Z,0.00
2018-09-24T00:53:29.339Z,0.23
2018-09-24T00:55:58.383Z,0.00
2018-09-24T00:58:26.642Z,0.00
2018-09-24T01:00:54.970Z,0.00
2018-09-24T01:03:23.644Z,0.00
2018-09-24T01:05:52.668Z,0.50
2018-09-24T01:08:21.118Z,0.00
2018-09-24T01:10:49.538Z,0.00
2018-09-24T01:13:17.974Z,0.00
2018-09-24T01:15:46.406Z,0.00
2018-09-24T01:18:15.569Z,0.00
2018-09-24T01:20:44.247Z,0.00
2018-09-24T01:23:12.543Z,0.00
2018-09-24T01:25:40.863Z,0.00
2018-09-24T01:28:09.188Z,0.00
2018-09-24T01:30:37.736Z,0.00
2018-09-24T01:33:07.527Z,0.00
2018-09-24T01:35:35.971Z,0.00
2018-09-24T01:38:04.262Z,0.00
2018-09-24T01:40:33.104Z,0.00
2018-09-24T01:43:01.383Z,0.00
2018-09-24T01:45:30.244Z,0.00
2018-09-24T01:47:58.654Z,0.17
2018-09-24T01:50:27.030Z,0.00
2018-09-24T01:52:55.407Z,0.00
2018-09-24T01:55:23.758Z,0.07
2018-09-24T01:57:52.310Z,0.33
2018-09-24T02:00:21.540Z,0.00
2018-09-24T02:02:50.062Z,0.00
2018-09-24T02:05:18.735Z,0.00
2018-09-24T02:07:47.020Z,0.00
2018-09-24T02:10:22.190Z,0.07
2018-09-24T02:12:52.719Z,0.00
2018-09-24T02:15:28.903Z,0.23
2018-09-24T02:17:57.724Z,0.00
2018-09-24T02:20:26.132Z,0.50
2018-09-24T02:22:54.433Z,0.00
2018-09-24T02:25:23.394Z,0.00
2018-09-24T02:27:52.489Z,0.00
2018-09-24T02:30:21.111Z,0.00
2018-09-24T02:32:49.467Z,0.00
2018-09-24T02:35:24.696Z,0.00
2018-09-24T02:37:53.136Z,0.00
2018-09-24T02:40:23.537Z,0.00
2018-09-24T02:42:52.185Z,0.00
2018-09-24T02:45:20.885Z,0.50
2018-09-24T02:47:49.175Z,0.00
2018-09-24T02:50:17.544Z,0.20
2018-09-24T02:52:45.832Z,0.10
2018-09-24T02:55:17.818Z,0.47
2018-09-24T02:57:46.222Z,0.20
2018-09-24T03:00:21.148Z,0.00
2018-09-24T03:02:50.150Z,0.00
2018-09-24T03:05:18.386Z,0.00
2018-09-24T03:07:46.698Z,0.00
2018-09-24T03:10:15.126Z,0.00
2018-09-24T03:12:47.256Z,0.10
2018-09-24T03:15:15.615Z,0.30
2018-09-24T03:17:44.206Z,0.00
2018-09-24T03:20:13.438Z,0.10
2018-09-24T03:22:41.725Z,0.23
2018-09-24T03:25:17.000Z,0.20
2018-09-24T03:27:45.689Z,0.00
2018-09-24T03:30:15.126Z,0.13
2018-09-24T03:32:43.415Z,0.00
2018-09-24T03:35:11.960Z,0.00
2018-09-24T03:37:40.374Z,0.50
2018-09-24T03:40:08.776Z,0.20
2018-09-24T03:42:37.300Z,0.00
2018-09-24T03:45:05.933Z,0.00
2018-09-24T03:47:34.305Z,0.00
2018-09-24T03:50:02.634Z,0.00
2018-09-24T03:52:30.906Z,0.40
2018-09-24T03:54:59.921Z,0.07
2018-09-24T03:57:29.438Z,0.43
2018-09-24T03:59:57.958Z,0.37
2018-09-24T04:02:26.421Z,0.10
2018-09-24T04:05:00.186Z,0.00
2018-09-24T04:07:33.606Z,0.10
2018-09-24T04:10:07.421Z,0.00
2018-09-24T04:12:41.093Z,0.00
2018-09-24T04:15:14.795Z,0.00
2018-09-24T04:17:48.499Z,0.00
2018-09-24T04:20:22.028Z,0.00
2018-09-24T04:22:55.803Z,0.50
2018-09-24T04:25:29.528Z,0.03
2018-09-24T04:28:03.337Z,0.33
2018-09-24T04:30:36.838Z,0.20
2018-09-24T04:33:10.997Z,0.00
2018-09-24T04:35:44.710Z,0.17
2018-09-24T04:38:19.086Z,0.23
2018-09-24T04:40:52.971Z,0.57
2018-09-24T04:43:26.634Z,0.80
2018-09-24T04:46:00.366Z,0.33
2018-09-24T04:48:34.038Z,0.00
2018-09-24T04:51:07.871Z,0.10
2018-09-24T04:53:41.564Z,0.00
2018-09-24T04:56:15.308Z,1.40
2018-09-24T04:58:49.093Z,0.33
2018-09-24T05:01:22.753Z,0.00
2018-09-24T05:03:56.420Z,0.00
2018-09-24T05:06:30.014Z,0.00
2018-09-24T05:09:03.718Z,0.00
2018-09-24T05:11:37.473Z,0.10
2018-09-24T05:14:11.520Z,0.20
2018-09-24T05:16:45.210Z,0.40
2018-09-24T05:19:18.871Z,0.03
2018-09-24T05:21:52.579Z,0.20
2018-09-24T05:24:26.254Z,0.00
2018-09-24T05:27:00.090Z,0.00
2018-09-24T05:29:33.865Z,0.40
2018-09-24T05:32:07.535Z,0.33
2018-09-24T05:34:41.200Z,0.27
2018-09-24T05:37:14.905Z,0.00
2018-09-24T05:39:48.610Z,0.20
2018-09-24T05:42:22.673Z,0.10
2018-09-24T05:44:56.162Z,0.00
2018-09-24T05:47:29.923Z,0.87
2018-09-24T05:50:03.627Z,0.20
2018-09-24T05:52:37.538Z,0.40
2018-09-24T05:55:11.178Z,0.00
2018-09-24T05:57:44.913Z,0.77
2018-09-24T06:00:18.638Z,0.20
2018-09-24T06:02:52.667Z,0.00
2018-09-24T06:05:26.374Z,0.77
2018-09-24T06:07:59.895Z,0.00
2018-09-24T06:10:33.522Z,0.00
2018-09-24T06:13:07.053Z,0.20
2018-09-24T06:15:41.234Z,0.13
2018-09-24T06:18:14.841Z,0.97
2018-09-24T06:20:48.483Z,0.50
2018-09-24T06:23:22.277Z,0.17
2018-09-24T06:25:56.096Z,0.43
2018-09-24T06:28:29.967Z,5.73
2018-09-24T06:31:03.449Z,5.80
2018-09-24T06:33:37.130Z,5.57
2018-09-24T06:36:10.851Z,5.27
2018-09-24T06:38:44.557Z,5.93
2018-09-24T06:41:18.290Z,6.03
2018-09-24T06:43:51.918Z,5.40
2018-09-24T06:46:25.532Z,5.13
2018-09-24T06:48:59.259Z,4.50
2018-09-24T06:51:32.926Z,4.43
2018-09-24T06:54:06.642Z,4.67
2018-09-24T06:56:40.338Z,4.23
2018-09-24T06:59:14.090Z,4.13
2018-09-24T07:01:47.710Z,4.43
2018-09-24T07:04:21.439Z,4.17
2018-09-24T07:06:55.192Z,4.37
2018-09-24T07:09:28.984Z,4.50
2018-09-24T07:12:02.812Z,4.67
2018-09-24T07:14:36.382Z,5.00
2018-09-24T07:17:10.066Z,5.03
2018-09-24T07:19:43.802Z,4.53
2018-09-24T07:22:17.547Z,4.77
2018-09-24T07:24:51.183Z,4.30
2018-09-24T07:27:24.915Z,4.73
2018-09-24T07:29:59.457Z,4.13
2018-09-24T07:32:33.215Z,4.03
2018-09-24T07:35:06.953Z,4.57
2018-09-24T07:37:40.572Z,3.97
2018-09-24T07:40:14.150Z,3.97
2018-09-24T07:42:47.791Z,4.00
2018-09-24T07:45:21.501Z,3.23
2018-09-24T07:47:55.179Z,2.90
2018-09-24T07:50:29.102Z,3.23
2018-09-24T07:53:02.674Z,2.90
2018-09-24T07:55:37.091Z,2.73
2018-09-24T07:58:10.863Z,2.63
2018-09-24T08:00:44.611Z,3.00
2018-09-24T08:03:18.354Z,2.80
2018-09-24T08:05:52.204Z,2.57
2018-09-24T08:08:25.765Z,2.50
2018-09-24T08:10:59.278Z,2.63
2018-09-24T08:13:32.979Z,2.27
2018-09-24T08:16:06.664Z,2.30
2018-09-24T08:18:40.382Z,2.33
2018-09-24T08:21:14.393Z,1.90
2018-09-24T08:23:48.164Z,2.90
2018-09-24T08:26:21.822Z,2.73
2018-09-24T08:29:05.732Z,2.30
2018-09-24T08:31:39.303Z,2.63
2018-09-24T08:34:13.369Z,2.40
2018-09-24T08:36:46.943Z,2.10
2018-09-24T08:39:21.220Z,2.33
2018-09-24T08:41:54.791Z,1.90
2018-09-24T08:44:28.732Z,2.03
2018-09-24T08:47:02.471Z,2.10
2018-09-24T08:49:36.182Z,2.33
2018-09-24T08:52:09.914Z,1.83
2018-09-24T08:54:44.187Z,2.33
2018-09-24T08:57:17.924Z,2.40
2018-09-24T08:59:51.286Z,1.90
2018-09-24T09:02:25.010Z,2.20
2018-09-24T09:04:58.811Z,2.10
2018-09-24T09:07:33.494Z,1.97
2018-09-24T09:10:07.306Z,2.40
2018-09-24T09:12:40.838Z,2.13
2018-09-24T09:15:14.682Z,1.90
2018-09-24T09:17:48.381Z,2.10
2018-09-24T09:20:22.105Z,2.07
2018-09-24T09:22:55.816Z,2.37
2018-09-24T09:25:29.543Z,1.90
2018-09-24T09:28:03.222Z,2.23
2018-09-24T09:30:36.647Z,1.80
2018-09-24T09:33:10.382Z,1.90
2018-09-24T09:35:43.923Z,1.80
2018-09-24T09:38:17.626Z,1.90
2018-09-24T09:40:51.669Z,1.83
2018-09-24T09:43:25.311Z,2.17
2018-09-24T09:45:59.040Z,1.53
2018-09-24T09:48:32.789Z,1.90
2018-09-24T09:51:06.398Z,1.93
2018-09-24T09:53:40.082Z,1.80
2018-09-24T09:56:14.493Z,2.10
2018-09-24T09:58:48.295Z,2.00
2018-09-24T10:01:21.993Z,1.93
2018-09-24T10:03:55.617Z,1.80
2018-09-24T10:06:29.305Z,1.97
2018-09-24T10:09:03.042Z,1.63
2018-09-24T10:11:36.760Z,1.73
2018-09-24T10:14:10.439Z,1.47
2018-09-24T10:16:44.214Z,1.60
2018-09-24T10:19:17.799Z,1.60
2018-09-24T10:21:51.526Z,1.73
2018-09-24T10:24:25.113Z,1.63
2018-09-24T10:26:58.869Z,1.53
2018-09-24T10:29:32.573Z,1.60
2018-09-24T10:32:06.397Z,1.73
2018-09-24T10:34:40.190Z,2.20
2018-09-24T10:37:14.062Z,1.77
2018-09-24T10:39:47.815Z,1.90
2018-09-24T10:42:22.523Z,2.07
2018-09-24T10:44:56.102Z,1.93
2018-09-24T10:47:29.769Z,1.80
2018-09-24T10:50:03.426Z,1.97
2018-09-24T10:52:37.108Z,2.10
2018-09-24T10:55:10.802Z,1.87
2018-09-24T10:57:44.510Z,1.80
2018-09-24T11:00:18.048Z,1.40
2018-09-24T11:02:52.470Z,1.47
2018-09-24T11:05:26.234Z,1.93
2018-09-24T11:08:00.103Z,1.97
2018-09-24T11:10:33.777Z,1.80
2018-09-24T11:13:07.348Z,1.40
2018-09-24T11:15:44.223Z,1.80
2018-09-24T11:18:17.876Z,1.70
2018-09-24T11:20:51.583Z,2.20
2018-09-24T11:23:25.175Z,1.60
2018-09-24T11:25:58.978Z,2.13
2018-09-24T11:28:32.594Z,1.50
2018-09-24T11:31:06.534Z,1.77
2018-09-24T11:33:40.259Z,1.63
2018-09-24T11:36:13.885Z,1.37
2018-09-24T11:38:47.618Z,1.57
2018-09-24T11:41:21.302Z,2.00
2018-09-24T11:43:55.003Z,1.80
2018-09-24T11:46:29.280Z,2.20
2018-09-24T11:49:02.945Z,2.00
2018-09-24T11:51:36.788Z,1.53
2018-09-24T11:54:10.601Z,1.73
2018-09-24T11:56:44.169Z,1.80
2018-09-24T11:59:17.851Z,1.60
2018-09-24T12:01:51.590Z,1.50
2018-09-24T12:04:25.257Z,1.43
2018-09-24T12:06:59.000Z,1.40
2018-09-24T12:09:32.778Z,1.80
2018-09-24T12:12:06.493Z,1.27
2018-09-24T12:14:40.503Z,1.50
2018-09-24T12:17:14.182Z,1.27
2018-09-24T12:19:47.886Z,1.50
2018-09-24T12:22:21.410Z,1.70
2018-09-24T12:24:55.012Z,1.20
2018-09-24T12:27:29.435Z,1.60
2018-09-24T12:30:03.096Z,1.50
2018-09-24T12:32:36.673Z,1.80
2018-09-24T12:35:10.271Z,1.50
2018-09-24T12:37:44.354Z,1.50
2018-09-24T12:40:18.123Z,1.67
2018-09-24T12:42:51.884Z,1.60
2018-09-24T12:45:25.642Z,1.43
2018-09-24T12:47:59.673Z,1.53
2018-09-24T12:50:33.269Z,1.73
2018-09-24T12:53:07.235Z,1.63
2018-09-24T12:55:40.887Z,2.07
2018-09-24T12:58:14.702Z,1.53
2018-09-24T13:00:48.390Z,1.70
2018-09-24T13:03:22.042Z,1.30
2018-09-24T13:05:55.740Z,1.40
2018-09-24T13:08:29.471Z,1.67
2018-09-24T13:11:03.228Z,1.27
2018-09-24T13:13:36.903Z,1.57
2018-09-24T13:16:10.613Z,1.53
2018-09-24T13:18:44.370Z,1.17
2018-09-24T13:21:18.071Z,1.30
2018-09-24T13:23:51.755Z,1.07
2018-09-24T13:26:25.627Z,1.67
2018-09-24T13:28:59.312Z,1.30
2018-09-24T13:31:32.927Z,1.30
2018-09-24T13:34:06.616Z,1.50
2018-09-24T13:36:40.346Z,1.50
2018-09-24T13:39:14.348Z,1.57
2018-09-24T13:41:48.310Z,1.83
2018-09-24T13:44:22.050Z,1.60
2018-09-24T13:46:59.425Z,1.83
2018-09-24T13:49:33.001Z,1.50
2018-09-24T13:52:06.980Z,2.00
2018-09-24T13:54:43.912Z,1.80
2018-09-24T13:57:29.756Z,1.53
2018-09-24T14:00:04.079Z,1.57
2018-09-24T14:02:37.939Z,1.90
2018-09-24T14:05:11.653Z,1.53
2018-09-24T14:07:45.655Z,1.63
2018-09-24T14:10:19.408Z,1.67
2018-09-24T14:12:53.123Z,1.50
2018-09-24T14:15:26.833Z,2.27
2018-09-24T14:18:00.682Z,1.53
2018-09-24T14:20:34.346Z,1.90
2018-09-24T14:23:11.082Z,1.53
2018-09-24T14:25:44.789Z,1.63
2018-09-24T14:28:19.462Z,1.57
2018-09-24T14:30:53.099Z,1.37
2018-09-24T14:33:26.883Z,1.40
2018-09-24T14:36:00.956Z,1.47
2018-09-24T14:38:37.585Z,1.80
2018-09-24T14:41:12.369Z,1.27
2018-09-24T14:43:46.031Z,1.60
2018-09-24T14:46:19.828Z,1.40
2018-09-24T14:48:53.580Z,1.60
2018-09-24T14:51:27.328Z,1.77
2018-09-24T14:54:01.038Z,1.60
2018-09-24T14:56:34.513Z,1.50
2018-09-24T14:59:08.540Z,1.70
2018-09-24T15:01:42.285Z,4.10
2018-09-24T15:04:15.868Z,1.77
2018-09-24T15:06:49.631Z,1.77
2018-09-24T15:09:23.308Z,1.80
2018-09-24T15:11:57.195Z,1.50
2018-09-24T15:14:31.020Z,1.90
2018-09-24T15:17:04.881Z,1.40
2018-09-24T15:19:38.482Z,1.43
2018-09-24T15:22:12.086Z,1.20
2018-09-24T15:24:45.614Z,1.23
2018-09-24T15:27:19.400Z,1.23
2018-09-24T15:29:53.032Z,1.97
2018-09-24T15:32:29.326Z,1.50
2018-09-24T15:37:47.652Z,1.67
2018-09-24T15:40:22.306Z,1.73
2018-09-24T15:42:56.573Z,1.27
2018-09-24T15:45:32.463Z,1.40
2018-09-24T15:48:07.508Z,1.40
2018-09-24T15:50:41.387Z,1.73
2018-09-24T15:53:15.330Z,1.53
2018-09-24T15:55:48.974Z,1.53
2018-09-24T15:58:22.658Z,2.50
2018-09-24T16:00:56.660Z,1.40
2018-09-24T16:03:30.726Z,1.60
2018-09-24T16:06:04.598Z,1.50
2018-09-24T16:08:38.305Z,1.40
2018-09-24T16:11:12.230Z,1.50
2018-09-24T16:13:45.752Z,1.40
2018-09-24T16:16:19.564Z,1.57
2018-09-24T16:18:54.962Z,1.37
2018-09-24T16:21:29.630Z,1.50
2018-09-24T16:24:03.506Z,1.93
2018-09-24T16:26:38.478Z,2.10
2018-09-24T16:29:12.599Z,1.57
2018-09-24T16:31:46.412Z,1.43
2018-09-24T16:34:20.451Z,1.80
2018-09-24T16:36:55.882Z,1.40
2018-09-24T16:39:32.013Z,1.80
2018-09-24T16:42:06.618Z,1.53
2018-09-24T16:44:43.975Z,1.67
2018-09-24T16:47:18.618Z,2.00
2018-09-24T16:49:53.430Z,1.77
2018-09-24T16:52:28.355Z,1.77
2018-09-24T16:55:02.669Z,1.50
2018-09-24T16:57:37.317Z,1.50
2018-09-24T17:00:11.040Z,1.27
2018-09-24T17:02:47.836Z,2.77
2018-09-24T17:05:21.762Z,2.97
2018-09-24T17:07:55.610Z,2.57
2018-09-24T17:10:31.230Z,1.77
2018-09-24T17:13:06.896Z,1.47
2018-09-24T17:15:40.754Z,1.53
2018-09-24T17:18:14.502Z,1.90
2018-09-24T17:20:48.250Z,1.57
2018-09-24T17:23:21.978Z,1.27
2018-09-24T17:25:55.536Z,1.90
2018-09-24T17:28:30.047Z,1.40
2018-09-24T17:31:03.883Z,1.40
2018-09-24T17:33:37.736Z,1.30
2018-09-24T17:36:11.551Z,1.40
2018-09-24T17:38:45.070Z,1.40
2018-09-24T17:41:18.530Z,1.47
2018-09-24T17:43:52.204Z,1.67
2018-09-24T17:46:25.815Z,1.47
2018-09-24T17:48:59.475Z,1.73
2018-09-24T17:51:33.167Z,1.87
2018-09-24T17:54:06.942Z,1.60
2018-09-24T17:56:40.677Z,1.97
2018-09-24T17:59:14.420Z,2.53
2018-09-24T18:01:48.152Z,1.90
2018-09-24T18:04:22.934Z,1.53
2018-09-24T18:06:56.437Z,1.90
2018-09-24T18:09:30.227Z,1.87
2018-09-24T18:12:03.804Z,2.67
2018-09-24T18:14:37.397Z,2.97
2018-09-24T18:17:11.400Z,3.10
2018-09-24T18:19:45.018Z,4.10
2018-09-24T18:22:18.832Z,3.60
2018-09-24T18:24:52.668Z,1.63
2018-09-24T18:27:26.246Z,2.30
2018-09-24T18:30:00.018Z,1.90
2018-09-24T18:32:33.582Z,1.70
2018-09-24T18:35:07.257Z,2.50
2018-09-24T18:37:40.935Z,2.67
2018-09-24T18:40:14.655Z,2.63
2018-09-24T18:42:48.316Z,3.43
2018-09-24T18:45:22.134Z,3.70
2018-09-24T18:47:55.807Z,3.10
2018-09-24T18:50:29.470Z,2.00
2018-09-24T18:53:03.038Z,2.10
2018-09-24T18:55:36.814Z,6.73
2018-09-24T18:58:10.517Z,5.93
2018-09-24T19:00:44.402Z,2.50
2018-09-24T19:03:17.997Z,3.03
2018-09-24T19:05:51.648Z,2.73
2018-09-24T19:08:25.299Z,2.33
2018-09-24T19:10:59.649Z,2.40
2018-09-24T19:13:33.468Z,1.80
2018-09-24T19:16:07.302Z,2.10
2018-09-24T19:18:41.086Z,2.10
2018-09-24T19:21:14.862Z,1.83
2018-09-24T19:23:48.551Z,1.83
2018-09-24T19:26:22.226Z,2.10
2018-09-24T19:28:55.894Z,2.20
2018-09-24T19:31:29.405Z,2.07
2018-09-24T19:34:02.975Z,2.20
2018-09-24T19:36:36.761Z,2.00
2018-09-24T19:39:13.854Z,1.90
2018-09-24T19:41:47.965Z,2.20
2018-09-24T19:44:22.322Z,2.30
2018-09-24T19:46:56.100Z,2.10
2018-09-24T19:49:29.820Z,2.07
2018-09-24T19:52:03.397Z,2.17
2018-09-24T19:54:37.021Z,2.20
2018-09-24T19:57:10.784Z,1.90
2018-09-24T19:59:44.399Z,2.20
2018-09-24T20:02:18.059Z,2.33
2018-09-24T20:04:51.730Z,2.67
2018-09-24T20:07:25.258Z,2.53
2018-09-24T20:09:59.854Z,2.20
2018-09-24T20:12:33.587Z,2.27
2018-09-24T20:15:07.273Z,2.47
2018-09-24T20:17:41.052Z,2.27
2018-09-24T20:20:14.738Z,1.93
2018-09-24T20:22:48.390Z,2.03
2018-09-24T20:25:22.174Z,2.00
2018-09-24T20:27:55.903Z,1.83
2018-09-24T20:30:29.626Z,2.10
2018-09-24T20:33:03.199Z,1.93
2018-09-24T20:35:36.882Z,2.10
2018-09-24T20:38:10.622Z,7.80
2018-09-24T20:40:44.330Z,5.00
2018-09-24T20:43:18.809Z,5.80
2018-09-24T20:45:52.538Z,3.57
2018-09-24T20:48:26.263Z,2.47
2018-09-24T20:50:59.821Z,2.50
2018-09-24T20:53:33.628Z,1.87
2018-09-24T20:56:07.311Z,2.20
2018-09-24T20:58:41.303Z,1.83
2018-09-24T21:01:14.967Z,2.10
2018-09-24T21:03:48.975Z,2.30
2018-09-24T21:06:22.863Z,2.13
2018-09-24T21:08:56.615Z,2.97
2018-09-24T21:11:30.389Z,3.63
2018-09-24T21:14:04.262Z,4.30
2018-09-24T21:16:38.112Z,3.17
2018-09-24T21:19:12.058Z,3.27
2018-09-24T21:21:45.761Z,2.67
2018-09-24T21:24:19.653Z,2.50
2018-09-24T21:26:53.252Z,2.17
2018-09-24T21:29:26.974Z,2.60
2018-09-24T21:32:00.637Z,2.60
2018-09-24T21:34:34.441Z,2.27
2018-09-24T21:37:08.244Z,1.80
2018-09-24T21:39:41.905Z,2.07
2018-09-24T21:42:15.419Z,2.00
2018-09-24T21:44:48.956Z,1.90
2018-09-24T21:47:22.946Z,2.00
2018-09-24T21:49:56.528Z,2.00
2018-09-24T21:52:30.204Z,2.23
2018-09-24T21:55:03.859Z,2.10
2018-09-24T21:57:37.380Z,2.00
2018-09-24T22:00:10.851Z,2.07
2018-09-24T22:02:44.529Z,2.13
2018-09-24T22:05:18.245Z,2.23
2018-09-24T22:07:52.226Z,2.17
2018-09-24T22:10:25.820Z,2.20
2018-09-24T22:12:59.537Z,2.23
2018-09-24T22:15:33.246Z,2.10
2018-09-24T22:18:07.860Z,2.20
2018-09-24T22:20:41.636Z,2.20
2018-09-24T22:23:15.375Z,2.00
2018-09-24T22:25:49.035Z,2.10
2018-09-24T22:28:22.765Z,2.20
2018-09-24T22:30:56.466Z,2.17
2018-09-24T22:33:30.181Z,1.80
2018-09-24T22:36:03.897Z,2.10
2018-09-24T22:38:37.563Z,2.47
2018-09-24T22:41:11.222Z,2.47
2018-09-24T22:43:44.975Z,2.07
2018-09-24T22:46:18.744Z,2.20
2018-09-24T22:48:52.292Z,2.00
2018-09-24T22:51:25.751Z,2.00
2018-09-24T22:53:59.469Z,2.10
2018-09-24T22:56:32.987Z,2.03
2018-09-24T22:59:06.970Z,2.30
2018-09-24T23:01:40.782Z,1.90
2018-09-24T23:04:14.798Z,2.60
2018-09-24T23:06:48.291Z,2.30
2018-09-24T23:09:22.402Z,2.63
2018-09-24T23:11:56.114Z,2.00
2018-09-24T23:14:30.006Z,2.33
2018-09-24T23:17:03.522Z,1.90
2018-09-24T23:19:37.318Z,2.37
2018-09-24T23:22:10.966Z,1.83
2018-09-24T23:24:44.675Z,2.07
2018-09-24T23:27:18.290Z,1.80
2018-09-24T23:29:52.422Z,1.80
2018-09-24T23:32:26.088Z,1.93
2018-09-24T23:34:59.827Z,1.80
2018-09-24T23:37:33.677Z,1.80
2018-09-24T23:40:07.374Z,1.87
2018-09-24T23:42:41.163Z,1.87
2018-09-24T23:45:14.909Z,1.70
2018-09-24T23:47:48.481Z,1.63
2018-09-24T23:50:22.275Z,1.90
2018-09-24T23:52:55.918Z,2.00
2018-09-24T23:55:29.888Z,1.70
2018-09-24T23:58:04.154Z,1.70
